Time;durP1;ratioP1;P1;durP2;ratioP2;P2;SDS_P1;SDS_P2;PMS_P1;PMS_P2;Temp;Humidity;BMP_temperature;BMP_pressure;BME280_temperature;BME280_humidity;BME280_pressure;Samples;Min_cycle;Max_cycle;Signal;HPM_P1;HPM_P2
2023/08/21 00:00:51;;;;;;;8.98;3.60;;;18.30;99.90;;;;;;5038198;28;20047;-76
2023/08/21 00:03:17;;;;;;;8.18;3.42;;;18.20;99.90;;;;;;5045426;28;20522;-77
2023/08/21 00:05:42;;;;;;;6.82;4.13;;;18.20;99.90;;;;;;5052267;28;20045;-76
2023/08/21 00:08:08;;;;;;;7.40;3.90;;;18.10;99.90;;;;;;5044756;28;20056;-77
2023/08/21 00:10:37;;;;;;;7.53;3.83;;;18.10;99.90;;;;;;5040882;28;20095;-75
2023/08/21 00:13:03;;;;;;;11.20;4.40;;;18.10;99.90;;;;;;5042332;28;20049;-76
2023/08/21 00:15:29;;;;;;;10.02;4.65;;;18.10;99.90;;;;;;5047624;28;20041;-76
2023/08/21 00:17:55;;;;;;;7.32;4.22;;;18.10;99.90;;;;;;5043637;28;20049;-76
2023/08/21 00:20:20;;;;;;;8.25;4.63;;;18.10;99.90;;;;;;5045052;28;20041;-76
2023/08/21 00:22:46;;;;;;;9.65;4.93;;;18.00;99.90;;;;;;5037189;28;20041;-76
2023/08/21 00:25:12;;;;;;;9.27;4.68;;;18.00;99.90;;;;;;5045501;28;20064;-76
2023/08/21 00:27:37;;;;;;;7.90;4.80;;;18.00;99.90;;;;;;5043754;28;20133;-76
2023/08/21 00:30:03;;;;;;;8.20;4.38;;;18.00;99.90;;;;;;5041207;28;20111;-76
2023/08/21 00:32:29;;;;;;;8.43;4.50;;;18.00;99.90;;;;;;5043076;28;20045;-76
2023/08/21 00:34:55;;;;;;;8.10;4.32;;;18.00;99.90;;;;;;5043951;28;20060;-76
2023/08/21 00:37:20;;;;;;;8.27;4.30;;;18.00;99.90;;;;;;5032963;28;20040;-76
2023/08/21 00:39:46;;;;;;;9.50;4.90;;;17.90;99.90;;;;;;5045068;28;20041;-76
2023/08/21 00:42:12;;;;;;;7.68;4.15;;;17.90;99.90;;;;;;5043985;28;20636;-76
2023/08/21 00:44:37;;;;;;;7.85;4.10;;;17.90;99.90;;;;;;5048201;28;20095;-76
2023/08/21 00:47:03;;;;;;;5.95;3.72;;;17.90;99.90;;;;;;5043509;28;20103;-76
2023/08/21 00:49:29;;;;;;;8.18;4.07;;;17.90;99.90;;;;;;5045520;28;20631;-76
2023/08/21 00:51:55;;;;;;;6.90;4.13;;;17.90;99.90;;;;;;5042463;28;20120;-76
2023/08/21 00:54:21;;;;;;;8.18;3.42;;;17.80;99.90;;;;;;5054422;28;20550;-76
2023/08/21 00:56:47;;;;;;;7.90;3.90;;;17.80;99.90;;;;;;5051016;28;20378;-76
2023/08/21 00:59:13;;;;;;;6.38;4.03;;;17.80;99.90;;;;;;5044671;28;20144;-76
2023/08/21 01:01:39;;;;;;;9.57;4.38;;;17.70;99.90;;;;;;5044729;28;20516;-76
2023/08/21 01:04:05;;;;;;;6.78;3.83;;;17.70;99.90;;;;;;5042566;28;20057;-76
2023/08/21 01:06:31;;;;;;;6.07;3.67;;;17.60;99.90;;;;;;5045575;28;20045;-76
2023/08/21 01:09:16;;;;;;;6.05;3.70;;;17.50;99.90;;;;;;5036050;28;20049;-76
2023/08/21 01:11:42;;;;;;;6.70;3.20;;;17.50;99.90;;;;;;5043608;28;20476;-76
2023/08/21 01:14:22;;;;;;;7.82;3.67;;;17.40;99.90;;;;;;5041234;28;20083;-76
2023/08/21 01:16:52;;;;;;;6.35;3.67;;;17.40;99.90;;;;;;5044958;28;20566;-76
2023/08/21 01:19:31;;;;;;;9.45;3.75;;;17.40;99.90;;;;;;5045794;28;20489;-76
2023/08/21 01:21:57;;;;;;;7.63;3.80;;;17.40;99.90;;;;;;5049330;28;20045;-77
2023/08/21 01:24:23;;;;;;;5.87;3.90;;;17.40;99.90;;;;;;5055774;28;20121;-76
2023/08/21 01:26:49;;;;;;;6.25;3.83;;;17.40;99.90;;;;;;5042181;28;20061;-76
2023/08/21 01:29:15;;;;;;;11.07;4.25;;;17.40;99.90;;;;;;5041906;28;20045;-76
2023/08/21 01:31:44;;;;;;;7.85;3.70;;;17.40;99.90;;;;;;5048126;28;20041;-76
2023/08/21 01:34:13;;;;;;;8.20;4.00;;;17.30;99.90;;;;;;5035513;28;20049;-76
2023/08/21 01:36:40;;;;;;;5.22;3.72;;;17.30;99.90;;;;;;5039947;28;20041;-76
2023/08/21 01:39:06;;;;;;;9.77;4.35;;;17.30;99.90;;;;;;5046394;28;20048;-76
2023/08/21 01:41:31;;;;;;;7.10;3.85;;;17.30;99.90;;;;;;5053858;28;20570;-76
2023/08/21 01:43:57;;;;;;;6.60;3.72;;;17.30;99.90;;;;;;5042049;28;20041;-76
2023/08/21 01:46:23;;;;;;;6.93;4.13;;;17.30;99.90;;;;;;5040162;28;20480;-76
2023/08/21 01:48:48;;;;;;;7.95;4.00;;;17.30;99.90;;;;;;5039420;28;20049;-76
2023/08/21 01:51:14;;;;;;;7.05;3.97;;;17.30;99.90;;;;;;5050468;28;20037;-76
2023/08/21 01:53:40;;;;;;;7.50;3.85;;;17.30;99.90;;;;;;5040448;28;20037;-76
2023/08/21 01:56:06;;;;;;;8.50;4.43;;;17.30;99.90;;;;;;5041586;28;20106;-76
2023/08/21 01:58:32;;;;;;;7.25;4.32;;;17.30;99.90;;;;;;5060317;28;20130;-76
2023/08/21 02:00:57;;;;;;;7.93;4.40;;;17.30;99.90;;;;;;5037666;28;20037;-76
2023/08/21 02:03:25;;;;;;;7.55;3.97;;;17.30;99.90;;;;;;5045093;28;20089;-76
2023/08/21 02:05:51;;;;;;;5.70;3.30;;;17.30;99.90;;;;;;5038663;28;20044;-76
2023/08/21 02:08:17;;;;;;;6.43;3.25;;;17.30;99.90;;;;;;5042252;28;20094;-76
2023/08/21 02:10:50;;;;;;;7.25;3.60;;;17.30;99.90;;;;;;5041527;28;20036;-76
2023/08/21 02:13:18;;;;;;;6.40;3.30;;;17.40;99.90;;;;;;5046644;28;20044;-75
2023/08/21 02:15:44;;;;;;;6.20;3.70;;;17.30;99.90;;;;;;5050021;28;20045;-76
2023/08/21 02:18:09;;;;;;;4.78;3.38;;;17.30;99.90;;;;;;5045275;28;20382;-77
2023/08/21 02:20:35;;;;;;;6.32;3.47;;;17.30;99.90;;;;;;5039062;28;20128;-76
2023/08/21 02:23:01;;;;;;;7.13;3.47;;;17.30;99.90;;;;;;5047500;28;20037;-76
2023/08/21 02:25:26;;;;;;;9.85;4.25;;;17.30;99.90;;;;;;5046277;28;20197;-77
2023/08/21 02:27:52;;;;;;;10.38;4.05;;;17.20;99.90;;;;;;5041245;28;20737;-76
2023/08/21 02:30:18;;;;;;;8.02;3.60;;;17.20;99.90;;;;;;5042198;28;20037;-76
2023/08/21 02:32:44;;;;;;;6.47;3.80;;;17.20;99.90;;;;;;5046988;28;20095;-76
2023/08/21 02:35:10;;;;;;;7.72;3.90;;;17.20;99.90;;;;;;5042833;28;20033;-76
2023/08/21 02:37:38;;;;;;;6.47;3.35;;;17.20;99.90;;;;;;5041545;28;20485;-76
2023/08/21 02:40:07;;;;;;;7.93;3.28;;;17.20;99.90;;;;;;5049212;28;20124;-76
2023/08/21 02:42:33;;;;;;;6.07;3.53;;;17.10;99.90;;;;;;5045662;28;20112;-76
2023/08/21 02:44:59;;;;;;;7.57;3.40;;;17.10;99.90;;;;;;5040258;28;20061;-76
2023/08/21 02:47:25;;;;;;;6.70;3.58;;;17.10;99.90;;;;;;5040409;28;20492;-76
2023/08/21 02:49:50;;;;;;;7.57;3.50;;;17.10;99.90;;;;;;5039334;28;20059;-76
2023/08/21 02:52:17;;;;;;;8.95;3.80;;;17.00;99.90;;;;;;5040563;28;20069;-76
2023/08/21 02:54:43;;;;;;;6.82;3.30;;;16.90;99.90;;;;;;5033924;28;20436;-76
2023/08/21 02:57:09;;;;;;;10.90;3.92;;;16.90;99.90;;;;;;5050325;28;20067;-76
2023/08/21 02:59:35;;;;;;;8.27;3.38;;;16.90;99.90;;;;;;5049423;28;20049;-76
2023/08/21 03:02:00;;;;;;;6.90;3.00;;;16.90;99.90;;;;;;5045961;28;20037;-76
2023/08/21 03:04:26;;;;;;;7.20;3.40;;;16.90;99.90;;;;;;5046940;28;20083;-76
2023/08/21 03:06:52;;;;;;;6.90;3.20;;;16.80;99.90;;;;;;5042312;28;20124;-76
2023/08/21 03:09:17;;;;;;;8.82;3.40;;;16.80;99.90;;;;;;5042347;28;20114;-76
2023/08/21 03:11:43;;;;;;;6.13;3.40;;;16.80;99.90;;;;;;5043913;28;20111;-76
2023/08/21 03:14:09;;;;;;;6.25;3.25;;;16.80;99.90;;;;;;5050509;28;20095;-77
2023/08/21 03:16:34;;;;;;;7.10;3.45;;;16.70;99.90;;;;;;5051323;28;20468;-76
2023/08/21 03:19:00;;;;;;;7.70;3.70;;;16.70;99.90;;;;;;5048543;28;20320;-77
2023/08/21 03:21:27;;;;;;;8.30;3.35;;;16.80;99.90;;;;;;5045486;28;20045;-77
2023/08/21 03:23:59;;;;;;;7.35;3.50;;;16.80;99.90;;;;;;5042273;28;20533;-77
2023/08/21 03:26:25;;;;;;;7.38;3.60;;;16.80;99.90;;;;;;5047610;28;20041;-77
2023/08/21 03:28:51;;;;;;;6.03;3.53;;;16.80;99.90;;;;;;5039444;28;20044;-76
2023/08/21 03:31:16;;;;;;;8.45;3.50;;;16.70;99.90;;;;;;5049903;28;20131;-76
2023/08/21 03:33:42;;;;;;;7.47;3.13;;;16.70;99.90;;;;;;5048514;28;20051;-77
2023/08/21 03:36:08;;;;;;;9.70;3.28;;;16.70;99.90;;;;;;5050438;28;20182;-76
2023/08/21 03:38:34;;;;;;;5.90;2.92;;;16.70;99.90;;;;;;5036626;28;20539;-76
2023/08/21 03:41:00;;;;;;;6.00;2.97;;;16.70;99.90;;;;;;5037367;28;20049;-76
2023/08/21 03:43:26;;;;;;;5.07;2.88;;;16.60;99.90;;;;;;5039943;28;20067;-75
2023/08/21 03:45:51;;;;;;;5.40;2.60;;;16.50;99.90;;;;;;5038376;28;20065;-76
2023/08/21 03:48:17;;;;;;;7.22;3.05;;;16.50;99.90;;;;;;5044435;28;20043;-76
2023/08/21 03:50:43;;;;;;;5.80;2.80;;;16.50;99.90;;;;;;5038332;28;20041;-76
2023/08/21 03:53:09;;;;;;;5.43;3.00;;;16.40;99.90;;;;;;5038883;28;20049;-77
2023/08/21 03:55:34;;;;;;;5.00;2.60;;;16.40;99.90;;;;;;5047655;28;20045;-76
2023/08/21 03:58:01;;;;;;;4.00;2.40;;;16.40;99.90;;;;;;5039280;28;20404;-76
2023/08/21 04:00:26;;;;;;;6.30;2.90;;;16.40;99.90;;;;;;5038094;28;20041;-76
2023/08/21 04:02:52;;;;;;;5.93;2.97;;;16.40;99.90;;;;;;5036874;28;20440;-76
2023/08/21 04:05:18;;;;;;;7.53;2.70;;;16.30;99.90;;;;;;5044939;28;20052;-76
2023/08/21 04:07:43;;;;;;;6.75;3.13;;;16.30;99.90;;;;;;5039481;28;20110;-76
2023/08/21 04:10:09;;;;;;;6.47;3.00;;;16.30;99.90;;;;;;5043349;28;20485;-76
2023/08/21 04:12:35;;;;;;;8.45;3.47;;;16.30;99.90;;;;;;5039596;28;20409;-76
2023/08/21 04:15:00;;;;;;;6.25;2.75;;;16.20;99.90;;;;;;5037726;28;20075;-77
2023/08/21 04:17:26;;;;;;;5.75;3.05;;;16.20;99.90;;;;;;5038095;28;20714;-77
2023/08/21 04:19:52;;;;;;;5.90;2.70;;;16.20;99.90;;;;;;5049322;28;20048;-76
2023/08/21 04:22:18;;;;;;;7.80;3.20;;;16.20;99.90;;;;;;5036377;28;20048;-76
2023/08/21 04:24:44;;;;;;;6.65;3.00;;;16.20;99.90;;;;;;5043622;28;20033;-76
2023/08/21 04:27:10;;;;;;;4.35;2.60;;;16.20;99.90;;;;;;5038026;28;20092;-77
2023/08/21 04:29:36;;;;;;;4.93;2.55;;;16.20;99.90;;;;;;5045829;28;20033;-76
2023/08/21 04:32:01;;;;;;;6.80;2.97;;;16.20;99.90;;;;;;5043318;28;20131;-77
2023/08/21 04:34:27;;;;;;;6.65;2.72;;;16.20;99.90;;;;;;5038449;28;20445;-76
2023/08/21 04:36:53;;;;;;;6.57;2.63;;;16.10;99.90;;;;;;5036574;28;20041;-77
2023/08/21 04:39:19;;;;;;;3.83;2.22;;;16.10;99.90;;;;;;5041791;28;20116;-77
2023/08/21 04:41:44;;;;;;;5.55;2.40;;;16.10;99.90;;;;;;5048717;28;20041;-76
2023/08/21 04:44:10;;;;;;;3.95;2.30;;;16.00;99.90;;;;;;5042425;28;20044;-77
2023/08/21 04:46:36;;;;;;;5.63;2.33;;;16.00;99.90;;;;;;5048851;28;20041;-77
2023/08/21 04:49:02;;;;;;;4.22;2.10;;;16.00;99.90;;;;;;5036621;28;20049;-77
2023/08/21 04:51:27;;;;;;;5.25;2.20;;;15.90;99.90;;;;;;5041538;28;20492;-77
2023/08/21 04:53:53;;;;;;;5.18;2.25;;;15.90;99.90;;;;;;5044039;28;20041;-76
2023/08/21 04:56:19;;;;;;;5.50;2.40;;;16.00;99.90;;;;;;5039514;28;20045;-76
2023/08/21 04:58:44;;;;;;;5.72;2.60;;;16.00;99.90;;;;;;5033912;28;20132;-76
2023/08/21 05:01:10;;;;;;;7.00;3.30;;;16.00;99.90;;;;;;5047784;28;20056;-76
2023/08/21 05:03:36;;;;;;;7.47;3.83;;;16.10;99.90;;;;;;5046394;28;20045;-77
2023/08/21 05:06:01;;;;;;;7.38;2.92;;;16.10;99.90;;;;;;5046305;28;20049;-75
2023/08/21 05:08:27;;;;;;;5.65;2.80;;;16.10;99.90;;;;;;5055191;28;20119;-76
2023/08/21 05:11:00;;;;;;;7.63;2.95;;;16.20;99.90;;;;;;5045749;28;20048;-76
2023/08/21 05:13:26;;;;;;;6.70;2.75;;;16.20;99.90;;;;;;5053994;28;20393;-76
2023/08/21 05:15:56;;;;;;;8.18;2.88;;;16.30;99.90;;;;;;5050398;28;20047;-76
2023/08/21 05:18:23;;;;;;;7.38;2.50;;;16.30;99.90;;;;;;5044363;28;20499;-76
2023/08/21 05:20:49;;;;;;;11.02;4.10;;;16.40;99.90;;;;;;5049766;28;20037;-75
2023/08/21 05:23:15;;;;;;;7.70;2.80;;;16.40;99.90;;;;;;5040567;28;20905;-76
2023/08/21 05:25:42;;;;;;;5.85;2.65;;;16.50;99.90;;;;;;5055986;28;20038;-76
2023/08/21 05:28:08;;;;;;;8.32;2.80;;;16.60;99.90;;;;;;5055967;28;20049;-76
2023/08/21 05:30:36;;;;;;;7.20;2.47;;;16.60;99.90;;;;;;5042529;28;20050;-76
2023/08/21 05:33:02;;;;;;;6.18;2.65;;;16.70;99.90;;;;;;5039788;28;20045;-76
2023/08/21 05:35:28;;;;;;;3.92;2.33;;;16.70;99.90;;;;;;5033121;28;20131;-76
2023/08/21 05:37:53;;;;;;;5.70;2.42;;;16.80;99.90;;;;;;5043681;28;20124;-76
2023/08/21 05:40:19;;;;;;;4.88;2.33;;;16.80;99.90;;;;;;5039042;28;20057;-76
2023/08/21 05:42:45;;;;;;;8.32;2.70;;;16.90;99.90;;;;;;5044153;28;20045;-76
2023/08/21 05:45:11;;;;;;;6.70;2.65;;;16.90;99.90;;;;;;5039109;28;20055;-75
2023/08/21 05:47:36;;;;;;;6.82;2.80;;;17.00;99.90;;;;;;5041053;28;20029;-74
2023/08/21 05:50:03;;;;;;;6.00;2.65;;;17.00;99.90;;;;;;5024946;28;20414;-75
2023/08/21 05:52:29;;;;;;;6.50;3.03;;;17.10;99.90;;;;;;5043074;28;20868;-75
2023/08/21 05:54:54;;;;;;;8.30;2.78;;;17.10;99.90;;;;;;5048739;28;20072;-75
2023/08/21 05:57:20;;;;;;;6.63;2.60;;;17.20;99.90;;;;;;5034514;28;20049;-76
2023/08/21 05:59:47;;;;;;;7.00;2.67;;;17.30;99.90;;;;;;5031674;28;20052;-72
2023/08/21 06:02:14;;;;;;;6.38;2.80;;;17.40;99.90;;;;;;5050448;28;20037;-77
2023/08/21 06:04:43;;;;;;;6.18;2.63;;;17.50;99.90;;;;;;5052692;28;20049;-77
2023/08/21 06:07:09;;;;;;;8.27;2.88;;;17.60;99.90;;;;;;5054286;28;20621;-76
2023/08/21 06:09:36;;;;;;;7.00;2.40;;;17.70;99.90;;;;;;5042422;28;20044;-76
2023/08/21 06:12:03;;;;;;;8.25;3.05;;;17.80;99.90;;;;;;5041071;28;20136;-75
2023/08/21 06:14:29;;;;;;;5.40;2.38;;;17.80;99.90;;;;;;5036369;28;20564;-75
2023/08/21 06:17:03;;;;;;;6.60;2.57;;;17.90;99.90;;;;;;5036526;28;20146;-75
2023/08/21 06:19:29;;;;;;;9.13;2.80;;;18.00;99.90;;;;;;5035058;28;20303;-76
2023/08/21 06:21:55;;;;;;;6.78;2.65;;;18.00;99.90;;;;;;5044182;28;20722;-75
2023/08/21 06:24:22;;;;;;;6.50;2.60;;;18.10;99.90;;;;;;5036631;28;20038;-76
2023/08/21 06:26:47;;;;;;;9.68;3.03;;;18.20;99.90;;;;;;5052839;28;20551;-76
2023/08/21 06:29:13;;;;;;;7.55;2.90;;;18.20;99.90;;;;;;5032840;28;20144;-76
2023/08/21 06:31:39;;;;;;;9.13;3.30;;;18.30;99.90;;;;;;5029303;28;20111;-76
2023/08/21 06:34:05;;;;;;;6.80;2.88;;;18.40;99.90;;;;;;5040078;28;20039;-76
2023/08/21 06:36:31;;;;;;;9.05;3.80;;;18.40;99.90;;;;;;5030972;28;20052;-77
2023/08/21 06:38:57;;;;;;;6.97;3.20;;;18.50;99.90;;;;;;5041912;28;20040;-76
2023/08/21 06:41:24;;;;;;;6.70;3.28;;;18.50;99.90;;;;;;5040317;28;20072;-76
2023/08/21 06:43:50;;;;;;;8.18;3.10;;;18.60;99.90;;;;;;5033705;28;20408;-74
2023/08/21 06:46:15;;;;;;;7.53;2.92;;;18.70;99.90;;;;;;5041415;28;20049;-75
2023/08/21 06:48:41;;;;;;;6.88;2.60;;;18.70;99.90;;;;;;5043976;28;20064;-76
2023/08/21 06:51:07;;;;;;;7.95;3.05;;;18.80;99.90;;;;;;5042401;28;20116;-75
2023/08/21 06:53:34;;;;;;;7.45;2.90;;;18.80;99.90;;;;;;5043044;28;20167;-76
2023/08/21 06:55:59;;;;;;;8.53;2.93;;;18.90;99.90;;;;;;5044715;28;20144;-75
2023/08/21 06:58:25;;;;;;;7.43;2.90;;;18.90;99.90;;;;;;5047023;28;20110;-77
2023/08/21 07:00:53;;;;;;;8.48;2.97;;;19.00;99.90;;;;;;5037931;28;20045;-75
2023/08/21 07:03:18;;;;;;;6.63;3.00;;;19.10;99.90;;;;;;5038128;28;20049;-77
2023/08/21 07:05:53;;;;;;;7.57;3.22;;;19.20;99.90;;;;;;5048486;28;20136;-77
2023/08/21 07:08:18;;;;;;;8.68;3.13;;;19.20;99.90;;;;;;5039804;28;20041;-75
2023/08/21 07:10:44;;;;;;;6.78;2.90;;;19.30;99.90;;;;;;5037297;28;20049;-77
2023/08/21 07:13:10;;;;;;;10.20;3.13;;;19.30;99.90;;;;;;5045936;28;20037;-75
2023/08/21 07:15:35;;;;;;;7.68;3.28;;;19.40;99.90;;;;;;5047812;28;20033;-74
2023/08/21 07:18:01;;;;;;;7.97;3.53;;;19.50;99.90;;;;;;5048081;28;20052;-74
2023/08/21 07:20:27;;;;;;;6.90;2.95;;;19.60;99.90;;;;;;5046325;28;20052;-76
2023/08/21 07:22:52;;;;;;;7.00;2.60;;;19.70;99.90;;;;;;5046382;28;20475;-76
2023/08/21 07:25:18;;;;;;;8.18;2.75;;;19.70;99.90;;;;;;5050762;28;20049;-77
2023/08/21 07:27:43;;;;;;;8.93;3.10;;;19.80;99.90;;;;;;5051279;28;20044;-77
2023/08/21 07:30:10;;;;;;;9.13;2.67;;;19.90;99.90;;;;;;5047843;28;20079;-78
2023/08/21 07:32:36;;;;;;;6.85;2.08;;;19.90;99.90;;;;;;5049707;28;20149;-78
2023/08/21 07:35:02;;;;;;;6.55;2.15;;;20.00;99.90;;;;;;5049805;28;20068;-85
2023/08/21 07:37:28;;;;;;;7.15;2.20;;;20.10;99.90;;;;;;5044344;28;20045;-80
2023/08/21 07:39:57;;;;;;;5.45;1.88;;;20.20;99.90;;;;;;5040241;28;20053;-80
2023/08/21 07:42:23;;;;;;;5.68;1.83;;;20.20;99.90;;;;;;5065750;28;20055;-81
2023/08/21 07:44:48;;;;;;;4.72;1.95;;;20.30;99.90;;;;;;5053785;28;20084;-81
2023/08/21 07:47:14;;;;;;;6.75;1.60;;;20.40;99.90;;;;;;5047709;28;20041;-78
2023/08/21 07:49:40;;;;;;;7.80;1.70;;;20.50;99.90;;;;;;5044154;28;20041;-79
2023/08/21 07:52:06;;;;;;;6.50;1.88;;;20.50;99.90;;;;;;5042546;28;20033;-76
2023/08/21 07:54:31;;;;;;;4.57;1.88;;;20.60;99.90;;;;;;5044841;28;20041;-81
2023/08/21 07:56:57;;;;;;;5.85;2.13;;;20.70;99.90;;;;;;5057001;28;20435;-81
2023/08/21 07:59:23;;;;;;;7.53;2.03;;;20.70;99.90;;;;;;5046337;28;20037;-79
2023/08/21 08:01:49;;;;;;;6.43;1.75;;;20.80;99.90;;;;;;5044884;28;20132;-82
2023/08/21 08:04:15;;;;;;;7.00;2.00;;;20.80;99.90;;;;;;5038883;28;20061;-84
2023/08/21 08:06:41;;;;;;;6.68;2.65;;;20.90;99.90;;;;;;5048242;28;20040;-83
2023/08/21 08:09:07;;;;;;;7.07;2.40;;;21.00;99.90;;;;;;5048193;28;20075;-82
2023/08/21 08:11:33;;;;;;;6.43;2.10;;;21.10;99.90;;;;;;5051135;28;20053;-87
2023/08/21 08:14:00;;;;;;;7.05;2.60;;;21.20;99.90;;;;;;5049100;28;20041;-84
2023/08/21 08:16:26;;;;;;;8.13;2.47;;;21.20;99.90;;;;;;5035336;28;20058;-85
2023/08/21 08:18:51;;;;;;;6.95;2.20;;;21.30;99.90;;;;;;5044164;28;20033;-82
2023/08/21 08:21:17;;;;;;;5.47;1.90;;;21.40;99.90;;;;;;5048205;28;20088;-82
2023/08/21 08:23:43;;;;;;;6.07;2.33;;;21.40;99.90;;;;;;5049401;28;20400;-84
2023/08/21 08:26:09;;;;;;;6.37;2.13;;;21.50;99.90;;;;;;5041859;28;20098;-79
2023/08/21 08:28:35;;;;;;;5.40;1.65;;;21.60;99.90;;;;;;5046209;28;20053;-79
2023/08/21 08:31:01;;;;;;;5.70;1.75;;;21.60;99.90;;;;;;5042295;28;20124;-78
2023/08/21 08:33:26;;;;;;;5.15;1.52;;;21.70;99.90;;;;;;5043312;28;20044;-80
2023/08/21 08:35:52;;;;;;;4.28;1.60;;;21.70;99.90;;;;;;5040399;28;20135;-73
2023/08/21 08:38:18;;;;;;;6.07;1.40;;;21.80;99.90;;;;;;5049009;28;20041;-81
2023/08/21 08:40:46;;;;;;;7.37;1.83;;;21.80;99.90;;;;;;5049178;28;20044;-76
2023/08/21 08:43:13;;;;;;;6.88;2.00;;;21.90;99.90;;;;;;5045206;28;20041;-80
2023/08/21 08:45:41;;;;;;;6.13;1.90;;;22.00;99.90;;;;;;5043643;28;20048;-79
2023/08/21 08:48:07;;;;;;;5.93;2.00;;;22.10;99.90;;;;;;5047344;28;20299;-83
2023/08/21 08:50:33;;;;;;;3.75;1.58;;;22.10;99.90;;;;;;5037481;28;20044;-82
2023/08/21 08:53:00;;;;;;;7.75;2.08;;;22.20;99.90;;;;;;5038103;28;20048;-82
2023/08/21 08:55:26;;;;;;;6.00;1.83;;;22.20;99.90;;;;;;5049780;28;20106;-77
2023/08/21 08:57:53;;;;;;;6.47;1.67;;;22.20;99.90;;;;;;5044088;28;20045;-77
2023/08/21 09:00:20;;;;;;;4.85;1.42;;;22.20;99.90;;;;;;5045840;28;20457;-77
2023/08/21 09:02:46;;;;;;;5.93;1.70;;;22.30;99.90;;;;;;5031654;28;20055;-76
2023/08/21 09:05:12;;;;;;;6.82;1.67;;;22.30;99.90;;;;;;5047121;28;20112;-78
2023/08/21 09:07:39;;;;;;;4.35;1.50;;;22.40;99.90;;;;;;5038791;28;20047;-80
2023/08/21 09:10:13;;;;;;;6.13;1.50;;;22.50;99.90;;;;;;5042177;28;20049;-77
2023/08/21 09:12:39;;;;;;;5.32;1.13;;;22.60;99.90;;;;;;5047866;28;20088;-76
2023/08/21 09:15:08;;;;;;;3.80;1.40;;;22.60;99.90;;;;;;5050624;28;20503;-77
2023/08/21 09:17:34;;;;;;;3.47;1.35;;;22.70;99.90;;;;;;5051679;28;20056;-78
2023/08/21 09:20:05;;;;;;;4.68;1.33;;;22.70;99.90;;;;;;5051434;28;20042;-77
2023/08/21 09:22:30;;;;;;;8.52;1.30;;;22.80;99.90;;;;;;5017874;28;20041;-77
2023/08/21 09:25:06;;;;;;;3.92;1.27;;;22.90;99.90;;;;;;5037794;28;20500;-78
2023/08/21 09:27:33;;;;;;;6.80;1.50;;;23.00;99.90;;;;;;5037604;28;20106;-84
2023/08/21 09:30:09;;;;;;;4.13;1.40;;;23.00;99.90;;;;;;5041003;28;20102;-80
2023/08/21 09:32:55;;;;;;;3.28;0.98;;;23.10;99.90;;;;;;5058229;28;20041;-80
2023/08/21 09:35:21;;;;;;;3.05;1.20;;;23.10;99.90;;;;;;5038634;28;20047;-78
2023/08/21 09:37:47;;;;;;;3.42;1.10;;;23.00;99.90;;;;;;5041733;28;20155;-76
2023/08/21 09:40:13;;;;;;;3.17;1.00;;;23.00;99.90;;;;;;5041232;28;20045;-76
2023/08/21 09:42:42;;;;;;;4.05;1.05;;;23.00;99.90;;;;;;5045802;28;20048;-75
2023/08/21 09:45:08;;;;;;;1.88;0.90;;;23.10;99.90;;;;;;5059993;28;20063;-80
2023/08/21 09:47:34;;;;;;;3.75;1.20;;;23.20;99.90;;;;;;5049439;28;20037;-78
2023/08/21 09:50:00;;;;;;;3.92;1.10;;;23.30;99.90;;;;;;5046647;28;20045;-81
2023/08/21 09:52:26;;;;;;;4.93;1.25;;;23.40;99.90;;;;;;5042236;28;20044;-78
2023/08/21 09:54:55;;;;;;;4.93;1.10;;;23.40;99.90;;;;;;5043741;28;20415;-74
2023/08/21 09:57:22;;;;;;;4.45;1.70;;;23.40;99.90;;;;;;5047388;28;21100;-75
2023/08/21 09:59:53;;;;;;;3.75;1.30;;;23.30;99.90;;;;;;5044732;28;20116;-75
2023/08/21 10:02:19;;;;;;;5.30;1.15;;;23.20;99.90;;;;;;5034351;28;20098;-79
2023/08/21 10:04:47;;;;;;;4.80;1.63;;;23.20;99.90;;;;;;5044556;28;20060;-80
2023/08/21 10:07:13;;;;;;;3.65;1.35;;;23.20;99.90;;;;;;5044632;28;20089;-77
2023/08/21 10:09:41;;;;;;;7.20;1.70;;;23.30;99.90;;;;;;5044063;28;20052;-75
2023/08/21 10:12:09;;;;;;;6.53;1.40;;;23.40;99.90;;;;;;5044270;28;20558;-77
2023/08/21 10:14:36;;;;;;;3.63;1.40;;;23.40;99.90;;;;;;5037391;28;20045;-74
2023/08/21 10:17:02;;;;;;;4.00;1.33;;;23.50;99.90;;;;;;5062391;28;20084;-75
2023/08/21 10:19:32;;;;;;;3.90;1.10;;;23.60;99.90;;;;;;5061153;28;20045;-75
2023/08/21 10:21:59;;;;;;;2.28;0.90;;;23.70;99.90;;;;;;5050895;28;20119;-75
2023/08/21 10:24:37;;;;;;;4.72;1.30;;;23.80;99.90;;;;;;5052937;28;20447;-75
2023/08/21 10:27:06;;;;;;;4.22;1.30;;;23.90;99.90;;;;;;5050972;28;20068;-75
2023/08/21 10:29:32;;;;;;;5.72;1.35;;;24.00;99.90;;;;;;5052339;28;20119;-75
2023/08/21 10:32:02;;;;;;;3.83;1.20;;;24.10;99.90;;;;;;5052391;28;20029;-75
2023/08/21 10:34:37;;;;;;;4.68;1.45;;;24.10;99.90;;;;;;5052172;28;20431;-75
2023/08/21 10:37:11;;;;;;;5.70;1.20;;;24.00;99.90;;;;;;5049085;28;20437;-75
2023/08/21 10:39:39;;;;;;;3.47;1.25;;;24.00;99.90;;;;;;5036902;28;20544;-75
2023/08/21 10:42:07;;;;;;;4.28;1.17;;;24.00;99.90;;;;;;5047784;28;20083;-75
2023/08/21 10:44:42;;;;;;;2.85;1.05;;;24.10;99.90;;;;;;5051738;28;20507;-75
2023/08/21 10:47:18;;;;;;;3.05;1.08;;;24.20;99.90;;;;;;5051499;28;20083;-75
2023/08/21 10:49:48;;;;;;;2.60;1.20;;;24.40;99.90;;;;;;5052001;28;20068;-75
2023/08/21 10:52:19;;;;;;;4.65;1.30;;;24.40;99.90;;;;;;5052520;28;20049;-74
2023/08/21 10:55:09;;;;;;;7.28;1.65;;;24.50;99.90;;;;;;5048525;28;20753;-73
2023/08/21 10:57:35;;;;;;;3.90;1.20;;;24.60;99.90;;;;;;5047628;28;20061;-74
2023/08/21 11:00:12;;;;;;;4.97;1.20;;;24.60;99.90;;;;;;5034029;28;20500;-75
2023/08/21 11:02:42;;;;;;;4.80;1.30;;;24.70;99.90;;;;;;5039066;28;20087;-74
2023/08/21 11:05:09;;;;;;;4.43;1.20;;;24.80;99.90;;;;;;5052733;28;20057;-75
2023/08/21 11:07:46;;;;;;;6.30;1.52;;;24.90;99.90;;;;;;5051428;28;20044;-74
2023/08/21 11:10:14;;;;;;;5.13;1.52;;;25.00;99.90;;;;;;5048801;28;20452;-74
2023/08/21 11:12:49;;;;;;;5.00;1.38;;;25.00;99.90;;;;;;5044813;28;20489;-75
2023/08/21 11:15:17;;;;;;;2.92;1.10;;;25.10;99.90;;;;;;5034654;28;20049;-74
2023/08/21 11:17:50;;;;;;;5.70;1.38;;;25.20;99.90;;;;;;5049641;28;20048;-75
2023/08/21 11:20:15;;;;;;;3.75;1.25;;;25.20;99.90;;;;;;5052525;28;20052;-74
2023/08/21 11:22:41;;;;;;;6.20;1.55;;;25.30;99.90;;;;;;5051454;28;20120;-75
2023/08/21 11:25:07;;;;;;;3.37;1.13;;;25.40;99.90;;;;;;5050417;28;20045;-75
2023/08/21 11:27:33;;;;;;;3.73;1.40;;;25.40;99.90;;;;;;5049977;28;20090;-73
2023/08/21 11:30:01;;;;;;;4.75;1.33;;;25.50;99.90;;;;;;5051171;28;20053;-74
2023/08/21 11:32:27;;;;;;;4.57;1.50;;;25.60;99.90;;;;;;5044194;28;20119;-74
2023/08/21 11:34:56;;;;;;;3.45;1.20;;;25.60;99.90;;;;;;5041254;28;20136;-74
2023/08/21 11:37:24;;;;;;;3.58;1.38;;;25.60;99.90;;;;;;5051164;28;20056;-74
2023/08/21 11:39:54;;;;;;;5.03;1.20;;;25.70;99.90;;;;;;5051619;28;20064;-74
2023/08/21 11:42:30;;;;;;;4.63;1.50;;;25.70;99.90;;;;;;5061626;28;20041;-74
2023/08/21 11:44:56;;;;;;;3.28;1.30;;;25.70;99.90;;;;;;5047717;28;20172;-74
2023/08/21 11:47:23;;;;;;;3.22;1.10;;;25.70;99.90;;;;;;5051031;28;20052;-74
2023/08/21 11:49:50;;;;;;;6.35;1.48;;;25.80;99.90;;;;;;5045034;28;20127;-75
2023/08/21 11:52:20;;;;;;;5.43;1.30;;;25.80;99.90;;;;;;5041162;28;20054;-74
2023/08/21 11:54:49;;;;;;;5.90;1.63;;;25.90;99.90;;;;;;5053697;28;20064;-74
2023/08/21 11:57:15;;;;;;;3.03;1.20;;;26.00;99.90;;;;;;5048199;28;20119;-75
2023/08/21 11:59:41;;;;;;;3.67;1.17;;;26.00;99.90;;;;;;5049204;28;20536;-75
2023/08/21 12:02:14;;;;;;;3.37;1.10;;;26.00;99.90;;;;;;5041511;28;20159;-75
2023/08/21 12:04:40;;;;;;;7.70;1.85;;;26.00;99.80;;;;;;5047010;28;20564;-75
2023/08/21 12:07:06;;;;;;;4.07;1.40;;;26.00;99.90;;;;;;5044002;28;20144;-78
2023/08/21 12:09:32;;;;;;;3.70;1.50;;;26.00;99.90;;;;;;5040574;28;20037;-77
2023/08/21 12:11:58;;;;;;;4.00;1.10;;;26.00;99.90;;;;;;5042876;28;20045;-75
2023/08/21 12:14:24;;;;;;;7.07;2.17;;;26.00;99.90;;;;;;5046465;28;20040;-74
2023/08/21 12:16:50;;;;;;;5.63;1.43;;;26.00;99.10;;;;;;5040116;28;20079;-75
2023/08/21 12:19:15;;;;;;;5.27;1.37;;;26.00;99.00;;;;;;5046043;28;20048;-79
2023/08/21 12:21:42;;;;;;;3.00;1.25;;;26.00;98.60;;;;;;5046262;28;20083;-76
2023/08/21 12:24:08;;;;;;;4.37;1.10;;;26.00;98.60;;;;;;5045163;28;20069;-76
2023/08/21 12:26:34;;;;;;;4.57;1.42;;;26.00;98.10;;;;;;5040736;28;20041;-75
2023/08/21 12:29:00;;;;;;;4.73;1.30;;;26.10;97.50;;;;;;5043261;28;20094;-75
2023/08/21 12:31:26;;;;;;;2.92;1.23;;;26.10;97.80;;;;;;5050176;28;20056;-76
2023/08/21 12:33:52;;;;;;;3.20;1.07;;;26.10;98.20;;;;;;5050508;28;20045;-75
2023/08/21 12:36:18;;;;;;;5.03;1.40;;;26.10;97.90;;;;;;5065152;28;20045;-76
2023/08/21 12:38:44;;;;;;;4.97;1.20;;;26.00;97.20;;;;;;5050948;28;20037;-76
2023/08/21 12:41:09;;;;;;;5.27;1.60;;;25.90;97.10;;;;;;5064251;28;20107;-75
2023/08/21 12:43:35;;;;;;;3.97;1.20;;;25.80;97.40;;;;;;5062256;28;20044;-75